createdAt,value
2022-11-12T00:01:30.405Z,17.63
2022-11-12T00:03:59.776Z,16.20
2022-11-12T00:06:27.786Z,14.70
2022-11-12T00:08:55.849Z,15.67
2022-11-12T00:11:23.856Z,17.00
2022-11-12T00:13:51.860Z,17.53
2022-11-12T00:16:19.858Z,16.30
2022-11-12T00:18:48.661Z,16.90
2022-11-12T00:21:18.254Z,15.27
2022-11-12T00:23:46.214Z,18.73
2022-11-12T00:26:14.242Z,15.33
2022-11-12T00:28:42.534Z,15.50
2022-11-12T00:31:12.389Z,16.93
2022-11-12T00:33:41.786Z,16.67
2022-11-12T00:36:10.530Z,19.07
2022-11-12T00:38:39.943Z,14.83
2022-11-12T00:41:08.021Z,18.43
2022-11-12T00:43:36.086Z,17.40
2022-11-12T00:46:04.151Z,17.17
2022-11-12T00:48:32.150Z,17.80
2022-11-12T00:51:02.194Z,15.73
2022-11-12T00:53:30.269Z,16.30
2022-11-12T00:56:03.346Z,13.93
2022-11-12T00:58:31.815Z,15.10
2022-11-12T01:01:05.329Z,17.40
2022-11-12T01:03:33.464Z,13.30
2022-11-12T01:06:04.045Z,15.83
2022-11-12T01:08:32.055Z,14.87
2022-11-12T01:11:08.761Z,15.27
2022-11-12T01:13:42.865Z,15.40
2022-11-12T01:16:14.298Z,14.20
2022-11-12T01:18:42.782Z,13.60
2022-11-12T01:21:11.654Z,15.17
2022-11-12T01:23:43.085Z,15.67
2022-11-12T01:26:15.418Z,13.37
2022-11-12T01:28:44.131Z,13.10
2022-11-12T01:31:14.211Z,11.73
2022-11-12T01:33:43.093Z,16.20
2022-11-12T01:36:11.400Z,13.30
2022-11-12T01:38:41.109Z,13.07
2022-11-12T01:41:10.430Z,13.13
2022-11-12T01:43:39.815Z,12.30
2022-11-12T01:46:14.513Z,12.97
2022-11-12T01:48:53.155Z,13.40
2022-11-12T01:51:22.831Z,13.97
2022-11-12T01:53:54.357Z,11.30
2022-11-12T01:56:24.905Z,11.60
2022-11-12T01:59:01.588Z,11.80
2022-11-12T02:01:29.771Z,11.13
2022-11-12T02:03:58.277Z,14.17
2022-11-12T02:06:26.379Z,13.00
2022-11-12T02:08:55.044Z,12.40
2022-11-12T02:11:23.452Z,10.80
2022-11-12T02:14:01.228Z,11.73
2022-11-12T02:16:33.071Z,13.20
2022-11-12T02:19:01.470Z,11.83
2022-11-12T02:21:31.302Z,12.00
2022-11-12T02:24:00.826Z,12.60
2022-11-12T02:26:32.637Z,14.17
2022-11-12T02:29:00.793Z,11.30
2022-11-12T02:31:28.813Z,11.50
2022-11-12T02:33:56.922Z,13.20
2022-11-12T02:36:25.422Z,13.30
2022-11-12T02:38:55.055Z,13.63
2022-11-12T02:41:23.106Z,12.03
2022-11-12T02:43:51.130Z,14.30
2022-11-12T02:46:19.304Z,13.27
2022-11-12T02:48:47.280Z,11.47
2022-11-12T02:51:15.474Z,11.43
2022-11-12T02:53:43.451Z,11.53
2022-11-12T02:56:12.755Z,12.17
2022-11-12T02:58:40.764Z,11.97
2022-11-12T03:01:08.819Z,14.53
2022-11-12T03:03:36.828Z,10.90
2022-11-12T03:06:05.145Z,11.37
2022-11-12T03:08:33.178Z,11.40
2022-11-12T03:11:06.759Z,11.43
2022-11-12T03:13:36.258Z,10.83
2022-11-12T03:16:04.755Z,9.90
2022-11-12T03:18:33.084Z,10.30
2022-11-12T03:21:01.143Z,12.00
2022-11-12T03:23:29.127Z,10.77
2022-11-12T03:25:57.140Z,11.40
2022-11-12T03:28:25.486Z,9.20
2022-11-12T03:30:58.856Z,10.80
2022-11-12T03:33:27.184Z,9.73
2022-11-12T03:35:55.279Z,8.77
2022-11-12T03:38:23.537Z,9.67
2022-11-12T03:40:51.690Z,8.80
2022-11-12T03:43:19.670Z,8.93
2022-11-12T03:45:47.922Z,8.57
2022-11-12T03:48:17.321Z,7.70
2022-11-12T03:50:45.425Z,10.87
2022-11-12T03:53:13.412Z,8.93
2022-11-12T03:55:41.404Z,8.67
2022-11-12T03:58:09.398Z,7.60
2022-11-12T04:00:37.443Z,9.70
2022-11-12T04:03:05.468Z,7.90
2022-11-12T04:05:52.385Z,7.43
2022-11-12T04:08:44.929Z,6.90
2022-11-12T04:11:15.408Z,7.67
2022-11-12T04:13:45.545Z,7.03
2022-11-12T04:16:33.411Z,8.53
2022-11-12T04:19:20.475Z,7.63
2022-11-12T04:21:54.752Z,7.40
2022-11-12T04:24:43.629Z,7.17
2022-11-12T04:27:14.803Z,8.67
2022-11-12T04:30:00.835Z,6.17
2022-11-12T04:32:29.267Z,7.27
2022-11-12T04:34:57.874Z,6.40
2022-11-12T04:37:29.835Z,6.67
2022-11-12T04:40:18.855Z,6.70
2022-11-12T04:43:06.869Z,6.13
2022-11-12T04:45:35.199Z,5.73
2022-11-12T04:48:03.169Z,6.63
2022-11-12T04:50:31.280Z,6.70
2022-11-12T04:53:00.675Z,6.73
2022-11-12T04:55:28.613Z,5.27
2022-11-12T04:58:00.538Z,7.73
2022-11-12T05:00:29.118Z,5.67
2022-11-12T05:02:57.232Z,4.97
2022-11-12T05:05:28.559Z,5.80
2022-11-12T05:08:02.309Z,5.33
2022-11-12T05:10:30.598Z,5.50
2022-11-12T05:12:58.855Z,5.53
2022-11-12T05:15:26.856Z,6.00
2022-11-12T05:17:54.881Z,5.90
2022-11-12T05:20:22.887Z,5.87
2022-11-12T05:23:05.424Z,5.77
2022-11-12T05:25:36.080Z,6.13
2022-11-12T05:28:06.699Z,5.50
2022-11-12T05:30:35.468Z,5.80
2022-11-12T05:33:03.429Z,5.30
2022-11-12T05:35:31.449Z,7.00
2022-11-12T05:37:59.360Z,7.27
2022-11-12T05:40:27.339Z,6.50
2022-11-12T05:42:56.662Z,7.90
2022-11-12T05:45:24.642Z,9.07
2022-11-12T05:47:52.590Z,7.80
2022-11-12T05:50:20.630Z,7.07
2022-11-12T05:52:48.552Z,8.33
2022-11-12T05:55:16.698Z,7.43
2022-11-12T05:57:44.607Z,7.60
2022-11-12T06:00:14.974Z,10.50
2022-11-12T06:02:43.202Z,7.87
2022-11-12T06:05:11.742Z,7.73
2022-11-12T06:07:40.758Z,7.67
2022-11-12T06:10:09.739Z,8.97
2022-11-12T06:12:37.728Z,9.20
2022-11-12T06:15:06.692Z,6.10
2022-11-12T06:17:36.059Z,7.90
2022-11-12T06:20:04.230Z,7.43
2022-11-12T06:22:32.232Z,7.13
2022-11-12T06:25:00.288Z,6.13
2022-11-12T06:27:28.275Z,7.50
2022-11-12T06:29:56.223Z,7.53
2022-11-12T06:32:25.256Z,6.20
2022-11-12T06:34:54.656Z,9.13
2022-11-12T06:37:22.804Z,8.50
2022-11-12T06:39:51.003Z,7.03
2022-11-12T06:42:19.352Z,6.57
2022-11-12T06:44:47.323Z,7.20
2022-11-12T06:47:15.398Z,9.73
2022-11-12T06:49:43.385Z,9.07
2022-11-12T06:52:16.563Z,6.40
2022-11-12T06:54:45.109Z,6.17
2022-11-12T06:57:13.230Z,6.30
2022-11-12T06:59:41.234Z,7.03
2022-11-12T07:02:12.159Z,5.83
2022-11-12T07:04:40.142Z,7.20
2022-11-12T07:07:10.780Z,5.60
2022-11-12T07:09:40.605Z,5.17
2022-11-12T07:12:08.826Z,5.67
2022-11-12T07:14:36.885Z,5.50
2022-11-12T07:17:05.041Z,5.30
2022-11-12T07:19:33.096Z,5.53
2022-11-12T07:22:01.083Z,5.57
2022-11-12T07:24:29.088Z,5.00
2022-11-12T07:26:58.390Z,5.60
2022-11-12T07:29:46.482Z,5.30
2022-11-12T07:32:14.368Z,5.20
2022-11-12T07:34:42.349Z,5.70
2022-11-12T07:37:10.290Z,4.60
2022-11-12T07:39:38.275Z,5.30
2022-11-12T07:42:07.663Z,5.40
2022-11-12T07:44:35.655Z,7.03
2022-11-12T07:47:03.682Z,5.00
2022-11-12T07:49:31.695Z,4.57
2022-11-12T07:51:59.613Z,5.07
2022-11-12T07:54:27.578Z,5.93
2022-11-12T07:56:55.545Z,4.50
2022-11-12T07:59:24.867Z,4.83
2022-11-12T08:01:52.953Z,5.57
2022-11-12T08:04:20.946Z,5.70
2022-11-12T08:06:49.301Z,5.00
2022-11-12T08:09:17.365Z,7.40
2022-11-12T08:11:45.355Z,6.60
2022-11-12T08:14:13.353Z,6.13
2022-11-12T08:16:42.663Z,5.60
2022-11-12T08:19:10.675Z,5.97
2022-11-12T08:21:38.706Z,6.47
2022-11-12T08:24:07.271Z,5.20
2022-11-12T08:26:35.286Z,4.90
2022-11-12T08:29:08.390Z,4.83
2022-11-12T08:31:37.353Z,5.17
2022-11-12T08:34:15.063Z,5.70
2022-11-12T08:36:45.425Z,4.83
2022-11-12T08:39:13.364Z,5.50
2022-11-12T08:41:41.365Z,5.27
2022-11-12T08:44:09.254Z,7.20
2022-11-12T08:46:37.211Z,4.70
2022-11-12T08:49:06.584Z,7.07
2022-11-12T08:51:34.553Z,4.93
2022-11-12T08:54:02.686Z,6.17
2022-11-12T08:56:30.714Z,5.37
2022-11-12T08:59:01.791Z,6.30
2022-11-12T09:01:33.002Z,6.80
2022-11-12T09:04:01.069Z,6.00
2022-11-12T09:06:30.501Z,5.40
2022-11-12T09:08:58.569Z,6.57
2022-11-12T09:11:26.601Z,5.83
2022-11-12T09:13:54.687Z,6.30
2022-11-12T09:16:24.166Z,5.77
2022-11-12T09:18:52.237Z,7.10
2022-11-12T09:21:24.638Z,8.63
2022-11-12T09:23:54.023Z,6.47
2022-11-12T09:26:22.052Z,6.70
2022-11-12T09:28:50.090Z,6.77
2022-11-12T09:31:18.114Z,9.43
2022-11-12T09:33:46.178Z,5.70
2022-11-12T09:36:14.358Z,8.10
2022-11-12T09:38:42.385Z,6.33
2022-11-12T09:41:23.516Z,6.60
2022-11-12T09:43:53.023Z,7.70
2022-11-12T09:46:36.035Z,7.33
2022-11-12T09:49:11.292Z,7.30
2022-11-12T09:51:43.131Z,7.20
2022-11-12T09:54:20.771Z,7.90
2022-11-12T09:56:50.442Z,6.27
2022-11-12T09:59:18.949Z,6.67
2022-11-12T10:01:58.884Z,8.10
2022-11-12T10:04:52.820Z,9.53
2022-11-12T10:07:29.258Z,6.80
2022-11-12T10:10:04.021Z,6.27
2022-11-12T10:12:49.861Z,6.13
2022-11-12T10:15:54.886Z,6.93
2022-11-12T10:18:44.674Z,7.00
2022-11-12T10:21:22.447Z,9.63
2022-11-12T10:23:53.640Z,6.47
2022-11-12T10:26:23.834Z,6.60
2022-11-12T10:29:03.033Z,6.23
2022-11-12T10:31:31.031Z,7.40
2022-11-12T10:34:15.534Z,9.47
2022-11-12T10:36:47.534Z,8.40
2022-11-12T10:39:31.774Z,6.23
2022-11-12T10:42:04.799Z,6.67
2022-11-12T10:44:34.619Z,7.43
2022-11-12T10:47:24.282Z,8.70
2022-11-12T10:50:18.980Z,6.30
2022-11-12T10:52:56.564Z,6.73
2022-11-12T10:55:26.350Z,5.63
2022-11-12T10:58:14.443Z,7.43
2022-11-12T11:00:55.345Z,8.47
2022-11-12T11:03:25.613Z,8.40
2022-11-12T11:05:56.766Z,5.90
2022-11-12T11:08:37.044Z,6.17
2022-11-12T11:11:27.119Z,9.27
2022-11-12T11:13:56.894Z,6.60
2022-11-12T11:16:27.929Z,6.53
2022-11-12T11:18:58.784Z,6.80
2022-11-12T11:22:06.010Z,7.07
2022-11-12T11:24:40.634Z,6.03
2022-11-12T11:27:16.437Z,6.97
2022-11-12T11:30:07.042Z,6.40
2022-11-12T11:32:51.894Z,6.97
2022-11-12T11:35:27.207Z,6.43
2022-11-12T11:38:08.518Z,6.87
2022-11-12T11:40:41.458Z,5.97
2022-11-12T11:43:44.129Z,6.87
2022-11-12T11:46:21.718Z,8.47
2022-11-12T11:49:05.894Z,6.63
2022-11-12T11:51:47.977Z,7.43
2022-11-12T11:54:38.360Z,6.93
2022-11-12T11:57:12.914Z,6.53
2022-11-12T11:59:51.560Z,6.50
2022-11-12T12:03:02.194Z,6.07
2022-11-12T12:05:40.220Z,6.37
2022-11-12T12:08:11.720Z,5.53
2022-11-12T12:11:06.932Z,8.10
2022-11-12T12:13:48.195Z,6.90
2022-11-12T12:16:34.569Z,5.20
2022-11-12T12:19:07.974Z,6.70
2022-11-12T12:21:40.374Z,6.47
2022-11-12T12:24:16.614Z,5.80
2022-11-12T12:26:47.727Z,6.10
2022-11-12T12:29:20.721Z,5.50
2022-11-12T12:31:54.461Z,7.07
2022-11-12T12:34:25.830Z,6.87
2022-11-12T12:37:02.744Z,6.50
2022-11-12T12:39:43.582Z,6.50
2022-11-12T12:42:20.220Z,9.67
2022-11-12T12:45:04.699Z,6.33
2022-11-12T12:47:39.327Z,5.77
2022-11-12T12:50:12.854Z,5.77
2022-11-12T12:53:01.281Z,5.93
2022-11-12T12:55:41.667Z,6.70
2022-11-12T12:58:25.236Z,5.40
2022-11-12T13:00:58.189Z,5.20
2022-11-12T13:04:04.727Z,5.40
2022-11-12T13:06:35.158Z,6.50
2022-11-12T13:09:08.388Z,6.57
2022-11-12T13:12:12.827Z,6.40
2022-11-12T13:15:08.816Z,5.50
2022-11-12T13:17:51.660Z,4.93
2022-11-12T13:20:42.776Z,6.70
2022-11-12T13:24:13.267Z,5.00
2022-11-12T13:26:53.994Z,5.60
2022-11-12T13:29:40.355Z,6.60
2022-11-12T13:32:31.083Z,6.70
2022-11-12T13:35:27.682Z,6.97
2022-11-12T13:37:58.109Z,4.87
2022-11-12T13:40:45.025Z,6.90
2022-11-12T13:43:31.235Z,6.83
2022-11-12T13:46:06.078Z,5.70
2022-11-12T13:48:39.923Z,7.37
2022-11-12T13:51:16.193Z,6.27
2022-11-12T13:53:44.712Z,5.50
2022-11-12T13:56:29.122Z,8.87
2022-11-12T13:59:08.944Z,6.17
2022-11-12T14:01:37.044Z,7.57
2022-11-12T14:04:07.458Z,5.40
2022-11-12T14:06:39.005Z,7.37
2022-11-12T14:09:31.669Z,6.77
2022-11-12T14:12:17.813Z,6.60
2022-11-12T14:14:59.570Z,7.10
2022-11-12T14:17:37.635Z,6.67
2022-11-12T14:20:21.425Z,6.83
2022-11-12T14:22:49.860Z,6.37
2022-11-12T14:25:20.459Z,5.93
2022-11-12T14:27:50.927Z,7.60
2022-11-12T14:30:24.067Z,6.77
2022-11-12T14:32:54.526Z,6.80
2022-11-12T14:35:32.780Z,6.90
2022-11-12T14:38:07.336Z,7.53
2022-11-12T14:40:39.792Z,7.13
2022-11-12T14:43:36.339Z,9.03
2022-11-12T14:46:06.636Z,7.23
2022-11-12T14:48:47.222Z,7.27
2022-11-12T14:51:16.197Z,7.20
2022-11-12T14:53:47.924Z,10.30
2022-11-12T14:56:24.487Z,7.93
2022-11-12T14:58:55.450Z,10.37
2022-11-12T15:02:13.989Z,6.53
2022-11-12T15:04:20.236Z,7.27
2022-11-12T15:06:54.368Z,6.90
2022-11-12T15:09:34.632Z,6.60
2022-11-12T15:12:04.080Z,10.60
2022-11-12T15:14:34.509Z,7.80
2022-11-12T15:17:05.537Z,7.20
2022-11-12T15:19:34.042Z,7.40
2022-11-12T15:22:03.982Z,8.27
2022-11-12T15:24:34.255Z,7.37
2022-11-12T15:27:23.452Z,10.57
2022-11-12T15:30:16.045Z,10.40
2022-11-12T15:32:44.423Z,9.17
2022-11-12T15:35:32.958Z,9.30
2022-11-12T15:38:03.511Z,7.93
2022-11-12T15:40:34.103Z,8.97
2022-11-12T15:43:03.050Z,9.30
2022-11-12T15:45:32.450Z,9.13
2022-11-12T15:48:02.912Z,8.93
2022-11-12T15:50:32.505Z,15.00
2022-11-12T15:53:00.556Z,10.90
2022-11-12T15:55:28.759Z,10.13
2022-11-12T15:57:56.967Z,9.53
2022-11-12T16:00:27.100Z,10.90
2022-11-12T16:03:00.269Z,10.37
2022-11-12T16:05:28.341Z,9.73
2022-11-12T16:07:56.315Z,8.20
2022-11-12T16:10:24.278Z,8.83
2022-11-12T16:12:54.382Z,9.70
2022-11-12T16:15:25.438Z,10.03
2022-11-12T16:17:55.963Z,9.80
2022-11-12T16:20:27.677Z,9.60
2022-11-12T16:22:55.791Z,10.80
2022-11-12T16:25:24.696Z,9.30
2022-11-12T16:27:55.793Z,12.27
2022-11-12T16:30:27.059Z,12.97
2022-11-12T16:32:57.156Z,8.93
2022-11-12T16:35:27.283Z,10.43
2022-11-12T16:37:56.428Z,11.57
2022-11-12T16:40:26.475Z,10.00
2022-11-12T16:42:54.583Z,16.13
2022-11-12T16:45:25.157Z,17.90
2022-11-12T16:47:55.347Z,20.20
2022-11-12T16:50:27.092Z,16.63
2022-11-12T16:52:55.702Z,17.80
2022-11-12T16:55:23.707Z,15.43
2022-11-12T16:57:51.710Z,16.73
2022-11-12T17:00:20.538Z,19.60
2022-11-12T17:02:53.122Z,13.07
2022-11-12T17:05:23.016Z,12.37
2022-11-12T17:07:57.159Z,12.90
2022-11-12T17:10:25.577Z,11.87
2022-11-12T17:12:54.371Z,13.23
2022-11-12T17:15:22.402Z,19.33
2022-11-12T17:17:50.390Z,19.37
2022-11-12T17:20:18.492Z,17.53
2022-11-12T17:22:46.720Z,14.70
2022-11-12T17:25:16.153Z,15.60
2022-11-12T17:27:44.209Z,16.23
2022-11-12T17:30:13.318Z,15.57
2022-11-12T17:32:41.425Z,13.70
2022-11-12T17:35:09.588Z,14.70
2022-11-12T17:37:37.604Z,14.50
2022-11-12T17:40:06.958Z,17.13
2022-11-12T17:42:36.479Z,14.30
2022-11-12T17:45:04.891Z,13.50
2022-11-12T17:47:36.638Z,15.20
2022-11-12T17:50:08.316Z,17.90
2022-11-12T17:52:36.324Z,18.30
2022-11-12T17:55:04.774Z,18.97
2022-11-12T17:57:32.884Z,19.37
2022-11-12T18:00:02.300Z,18.20
2022-11-12T18:02:30.323Z,18.17
2022-11-12T18:04:58.356Z,15.77
2022-11-12T18:07:26.535Z,21.50
2022-11-12T18:09:54.565Z,23.30
2022-11-12T18:12:22.591Z,17.43
2022-11-12T18:14:50.604Z,19.30
2022-11-12T18:17:19.942Z,18.07
2022-11-12T18:19:47.984Z,19.57
2022-11-12T18:22:16.128Z,19.37
2022-11-12T18:24:44.619Z,20.20
2022-11-12T18:27:12.679Z,20.70
2022-11-12T18:29:41.665Z,17.63
2022-11-12T18:32:09.898Z,19.50
2022-11-12T18:34:44.991Z,19.60
2022-11-12T18:37:13.249Z,20.43
2022-11-12T18:39:41.398Z,18.53
2022-11-12T18:42:09.483Z,19.37
2022-11-12T18:44:37.822Z,18.03
2022-11-12T18:47:06.104Z,24.20
2022-11-12T18:49:34.168Z,18.73
2022-11-12T18:52:03.615Z,18.13
2022-11-12T18:54:31.772Z,23.57
2022-11-12T18:57:00.016Z,22.07
2022-11-12T18:59:30.719Z,21.17
2022-11-12T19:01:59.184Z,20.60
2022-11-12T19:04:27.383Z,21.17
2022-11-12T19:06:55.444Z,22.83
2022-11-12T19:09:24.881Z,25.20
2022-11-12T19:11:52.962Z,28.00
2022-11-12T19:14:21.100Z,38.43
2022-11-12T19:16:49.080Z,27.33
2022-11-12T19:19:17.355Z,30.43
2022-11-12T19:21:46.541Z,32.50
2022-11-12T19:24:14.667Z,42.47
2022-11-12T19:26:43.994Z,37.80
2022-11-12T19:29:12.177Z,34.67
2022-11-12T19:31:40.858Z,27.37
2022-11-12T19:34:09.134Z,27.00
2022-11-12T19:36:37.135Z,25.53
2022-11-12T19:39:05.447Z,28.00
2022-11-12T19:41:33.585Z,28.00
2022-11-12T19:44:03.168Z,23.23
2022-11-12T19:46:32.553Z,23.30
2022-11-12T19:49:00.713Z,24.63
2022-11-12T19:51:30.822Z,32.13
2022-11-12T19:53:58.827Z,51.00
2022-11-12T19:56:27.640Z,38.73
2022-11-12T19:58:55.674Z,29.43
2022-11-12T20:01:25.083Z,26.00
2022-11-12T20:03:53.078Z,27.00
2022-11-12T20:06:23.271Z,27.93
2022-11-12T20:08:51.319Z,27.83
2022-11-12T20:11:19.851Z,24.20
2022-11-12T20:13:48.084Z,25.47
2022-11-12T20:16:24.732Z,25.73
2022-11-12T20:18:55.953Z,28.13
2022-11-12T20:21:24.449Z,30.40
2022-11-12T20:23:52.628Z,32.57
2022-11-12T20:26:20.656Z,26.63
2022-11-12T20:28:48.883Z,30.93
2022-11-12T20:31:20.443Z,26.87
2022-11-12T20:33:49.609Z,25.87
2022-11-12T20:36:20.548Z,32.53
2022-11-12T20:38:50.194Z,25.50
2022-11-12T20:41:20.336Z,28.00
2022-11-12T20:43:49.010Z,24.63
2022-11-12T20:46:17.005Z,21.37
2022-11-12T20:48:45.113Z,24.53
2022-11-12T20:51:24.262Z,22.87
2022-11-12T20:53:59.476Z,19.97
2022-11-12T20:56:29.538Z,23.00
2022-11-12T20:58:58.239Z,21.77
2022-11-12T21:01:27.958Z,22.63
2022-11-12T21:03:56.096Z,22.80
2022-11-12T21:06:26.062Z,26.83
2022-11-12T21:08:55.529Z,20.00
2022-11-12T21:11:23.864Z,22.23
2022-11-12T21:13:51.896Z,21.50
2022-11-12T21:16:19.901Z,23.80
2022-11-12T21:18:48.025Z,25.07
2022-11-12T21:21:18.372Z,27.23
2022-11-12T21:23:46.565Z,22.97
2022-11-12T21:26:17.618Z,21.87
2022-11-12T21:28:46.719Z,25.23
2022-11-12T21:31:17.107Z,24.53
2022-11-12T21:33:45.136Z,24.87
2022-11-12T21:36:16.374Z,26.17
2022-11-12T21:38:44.961Z,24.00
2022-11-12T21:41:16.799Z,22.57
2022-11-12T21:43:45.749Z,26.30
2022-11-12T21:46:15.760Z,26.20
2022-11-12T21:48:44.161Z,22.07
2022-11-12T21:51:13.887Z,21.67
2022-11-12T21:53:43.158Z,24.90
2022-11-12T21:56:12.921Z,26.40
2022-11-12T21:58:42.911Z,25.77
2022-11-12T22:01:12.781Z,30.80
2022-11-12T22:03:41.242Z,30.00
2022-11-12T22:06:09.353Z,31.20
2022-11-12T22:08:37.655Z,31.47
2022-11-12T22:11:07.302Z,26.50
2022-11-12T22:13:36.053Z,27.80
2022-11-12T22:16:11.237Z,29.40
2022-11-12T22:18:40.000Z,26.90
2022-11-12T22:21:11.014Z,27.87
2022-11-12T22:23:39.329Z,24.07
2022-11-12T22:26:10.680Z,26.60
2022-11-12T22:28:38.862Z,29.37
2022-11-12T22:31:11.781Z,26.53
2022-11-12T22:33:40.393Z,22.03
2022-11-12T22:36:10.517Z,29.20
2022-11-12T22:38:40.277Z,25.00
2022-11-12T22:41:09.785Z,28.17
2022-11-12T22:43:38.307Z,28.70
2022-11-12T22:46:10.226Z,35.87
2022-11-12T22:48:38.673Z,28.87
2022-11-12T22:51:08.761Z,28.57
2022-11-12T22:53:37.107Z,32.80
2022-11-12T22:56:06.958Z,29.23
2022-11-12T22:58:36.545Z,30.20
2022-11-12T23:01:05.416Z,30.83
2022-11-12T23:03:35.523Z,27.00
2022-11-12T23:06:05.591Z,23.77
2022-11-12T23:08:35.805Z,27.03
2022-11-12T23:11:04.498Z,25.33
2022-11-12T23:13:32.877Z,23.80
2022-11-12T23:16:00.904Z,23.70
2022-11-12T23:18:29.516Z,28.50
2022-11-12T23:21:03.930Z,23.60
2022-11-12T23:23:32.040Z,24.73
2022-11-12T23:26:04.679Z,28.10
2022-11-12T23:28:32.664Z,23.50
2022-11-12T23:31:00.615Z,22.17
2022-11-12T23:33:28.636Z,23.43
2022-11-12T23:36:05.308Z,23.50
2022-11-12T23:38:33.547Z,19.63
2022-11-12T23:41:02.125Z,23.90
2022-11-12T23:43:30.444Z,21.17
2022-11-12T23:45:58.470Z,20.13
2022-11-12T23:48:27.228Z,24.07
2022-11-12T23:51:03.608Z,23.30
2022-11-12T23:53:35.392Z,27.77
2022-11-12T23:56:03.848Z,29.27
2022-11-12T23:58:32.080Z,30.40
